createdAt,value
2023-05-18T00:00:52.874Z,11.21002197
2023-05-18T00:01:53.800Z,11.19995117
2023-05-18T00:02:54.896Z,11.16973877
2023-05-18T00:03:56.294Z,11.11938477
2023-05-18T00:04:56.813Z,11.08917236
2023-05-18T00:05:57.876Z,11.07910156
2023-05-18T00:06:58.855Z,11.05895996
2023-05-18T00:08:00.590Z,11.02874756
2023-05-18T00:09:31.841Z,11.01867676
2023-05-18T00:10:33.234Z,11.04888916
2023-05-18T00:11:33.732Z,11.00860596
2023-05-18T00:12:34.839Z,11.04888916
2023-05-18T00:13:35.814Z,11.05895996
2023-05-18T00:14:37.095Z,11.04888916
2023-05-18T00:15:38.352Z,11.04888916
2023-05-18T00:16:39.644Z,11.02874756
2023-05-18T00:17:40.880Z,11.02874756
2023-05-18T00:18:41.887Z,11.04888916
2023-05-18T00:19:43.085Z,11.02874756
2023-05-18T00:20:44.673Z,11.01867676
2023-05-18T00:21:45.860Z,10.94818115
2023-05-18T00:22:46.830Z,10.93811035
2023-05-18T00:23:47.862Z,10.93811035
2023-05-18T00:24:48.820Z,10.92803955
2023-05-18T00:25:49.884Z,10.90789795
2023-05-18T00:26:50.823Z,10.89782715
2023-05-18T00:27:51.935Z,10.90789795
2023-05-18T00:28:53.102Z,10.90789795
2023-05-18T00:29:54.255Z,10.90789795
2023-05-18T00:30:55.655Z,10.92803955
2023-05-18T00:31:56.941Z,10.93811035
2023-05-18T00:32:57.866Z,10.90789795
2023-05-18T00:33:58.969Z,10.86761475
2023-05-18T00:35:31.395Z,10.80718994
2023-05-18T00:36:32.628Z,10.79711914
2023-05-18T00:37:34.081Z,10.79711914
2023-05-18T00:38:35.120Z,10.77697754
2023-05-18T00:39:35.622Z,10.72662354
2023-05-18T00:40:36.835Z,10.69641113
2023-05-18T00:41:37.856Z,10.68634033
2023-05-18T00:42:38.820Z,10.69641113
2023-05-18T00:43:39.812Z,10.68634033
2023-05-18T00:44:40.946Z,10.69641113
2023-05-18T00:45:42.396Z,10.68634033
2023-05-18T00:46:43.849Z,10.68634033
2023-05-18T00:47:44.818Z,10.68634033
2023-05-18T00:48:45.260Z,10.68634033
2023-05-18T00:49:45.767Z,10.68634033
2023-05-18T00:50:47.175Z,10.65612793
2023-05-18T00:51:48.357Z,10.65612793
2023-05-18T00:52:49.583Z,10.65612793
2023-05-18T00:53:50.835Z,10.62591553
2023-05-18T00:54:51.900Z,10.61584473
2023-05-18T00:55:53.377Z,10.57556152
2023-05-18T00:56:54.357Z,10.53527832
2023-05-18T00:57:55.593Z,10.46478271
2023-05-18T00:58:56.868Z,10.46478271
2023-05-18T00:59:57.844Z,10.46478271
2023-05-18T01:01:30.130Z,10.43457031
2023-05-18T01:02:31.163Z,10.42449951
2023-05-18T01:03:31.642Z,10.39428711
2023-05-18T01:04:32.613Z,10.38421631
2023-05-18T01:05:33.640Z,10.36407471
2023-05-18T01:06:34.053Z,10.38421631
2023-05-18T01:07:35.436Z,10.35400391
2023-05-18T01:08:36.802Z,10.36407471
2023-05-18T01:09:37.877Z,10.38421631
2023-05-18T01:10:38.869Z,10.39428711
2023-05-18T01:11:39.865Z,10.36407471
2023-05-18T01:12:40.858Z,10.34393311
2023-05-18T01:13:41.816Z,10.3137207
2023-05-18T01:14:42.880Z,10.2633667
2023-05-18T01:15:43.911Z,10.2432251
2023-05-18T01:16:45.526Z,10.2532959
2023-05-18T01:17:46.839Z,10.2633667
2023-05-18T01:18:48.144Z,10.2633667
2023-05-18T01:19:49.132Z,10.2633667
2023-05-18T01:20:49.659Z,10.2633667
2023-05-18T01:21:50.859Z,10.2230835
2023-05-18T01:22:51.858Z,10.2633667
2023-05-18T01:23:52.808Z,10.2633667
2023-05-18T01:24:53.869Z,10.2230835
2023-05-18T01:25:54.860Z,10.20294189
2023-05-18T01:26:55.816Z,10.17272949
2023-05-18T01:27:56.293Z,10.16265869
2023-05-18T01:28:57.311Z,10.16265869
2023-05-18T01:29:58.818Z,10.16265869
2023-05-18T01:31:31.149Z,10.18280029
2023-05-18T01:32:32.165Z,10.20294189
2023-05-18T01:33:32.533Z,10.18280029
2023-05-18T01:34:33.761Z,10.18280029
2023-05-18T01:35:35.122Z,10.16265869
2023-05-18T01:36:35.635Z,10.16265869
2023-05-18T01:37:36.827Z,10.13244629
2023-05-18T01:38:37.812Z,10.13244629
2023-05-18T01:39:38.847Z,10.13244629
2023-05-18T01:40:39.889Z,10.13244629
2023-05-18T01:41:40.990Z,10.10223389
2023-05-18T01:42:42.291Z,10.10223389
2023-05-18T01:43:43.590Z,10.10223389
2023-05-18T01:44:44.599Z,10.09216309
2023-05-18T01:45:45.595Z,10.10223389
2023-05-18T01:46:47.157Z,10.11230469
2023-05-18T01:47:47.692Z,10.13244629
2023-05-18T01:48:48.692Z,10.11230469
2023-05-18T01:49:49.599Z,10.11230469
2023-05-18T01:50:51.130Z,10.10223389
2023-05-18T01:51:52.610Z,10.10223389
2023-05-18T01:52:53.580Z,10.07202148
2023-05-18T01:53:54.625Z,10.07202148
2023-05-18T01:54:55.595Z,10.06195068
2023-05-18T01:55:56.622Z,10.09216309
2023-05-18T01:56:58.165Z,10.07202148
2023-05-18T01:58:30.601Z,10.06195068
2023-05-18T01:59:31.612Z,10.04180908
2023-05-18T02:00:32.648Z,10.04180908
2023-05-18T02:01:33.647Z,10.04180908
2023-05-18T02:02:35.193Z,10.02166748
2023-05-18T02:03:36.279Z,10.04180908
2023-05-18T02:04:37.103Z,10.01159668
2023-05-18T02:05:38.181Z,10.04180908
2023-05-18T02:06:39.608Z,9.991455078
2023-05-18T02:07:41.129Z,9.961242676
2023-05-18T02:08:42.308Z,9.931030273
2023-05-18T02:09:43.729Z,9.920959473
2023-05-18T02:10:44.867Z,9.910888672
2023-05-18T02:11:45.888Z,9.910888672
2023-05-18T02:12:46.917Z,9.910888672
2023-05-18T02:13:48.312Z,9.910888672
2023-05-18T02:14:49.625Z,9.920959473
2023-05-18T02:15:50.633Z,9.89074707
2023-05-18T02:16:52.176Z,9.931030273
2023-05-18T02:17:53.416Z,9.931030273
2023-05-18T02:18:54.680Z,9.920959473
2023-05-18T02:19:55.657Z,9.920959473
2023-05-18T02:20:56.228Z,9.88067627
2023-05-18T02:21:57.646Z,9.88067627
2023-05-18T02:23:29.141Z,9.88067627
2023-05-18T02:24:30.334Z,9.89074707
2023-05-18T02:25:31.788Z,9.910888672
2023-05-18T02:26:33.647Z,9.910888672
2023-05-18T02:27:34.622Z,9.89074707
2023-05-18T02:28:35.598Z,9.89074707
2023-05-18T02:29:36.854Z,9.910888672
2023-05-18T02:30:37.821Z,9.931030273
2023-05-18T02:31:39.117Z,9.920959473
2023-05-18T02:32:40.525Z,9.931030273
2023-05-18T02:33:41.970Z,9.961242676
2023-05-18T02:34:43.620Z,9.961242676
2023-05-18T02:35:44.618Z,10.01159668
2023-05-18T02:36:45.105Z,10.04180908
2023-05-18T02:37:46.362Z,10.06195068
2023-05-18T02:38:47.404Z,10.06195068
2023-05-18T02:39:48.865Z,10.11230469
2023-05-18T02:40:50.118Z,10.17272949
2023-05-18T02:41:50.524Z,10.16265869
2023-05-18T02:42:51.889Z,10.17272949
2023-05-18T02:43:53.422Z,10.16265869
2023-05-18T02:44:54.593Z,10.14251709
2023-05-18T02:45:55.160Z,10.09216309
2023-05-18T02:46:56.502Z,10.10223389
2023-05-18T02:48:29.123Z,10.16265869
2023-05-18T02:49:29.626Z,10.18280029
2023-05-18T02:50:30.871Z,10.20294189
2023-05-18T02:51:31.841Z,10.2532959
2023-05-18T02:52:33.126Z,10.2835083
2023-05-18T02:53:34.091Z,10.2935791
2023-05-18T02:54:34.519Z,10.3137207
2023-05-18T02:55:35.821Z,10.3137207
2023-05-18T02:56:37.120Z,10.2935791
2023-05-18T02:57:38.303Z,10.2935791
2023-05-18T02:58:38.903Z,10.3237915
2023-05-18T02:59:39.880Z,10.34393311
2023-05-18T03:00:40.795Z,10.34393311
2023-05-18T03:01:42.176Z,10.34393311
2023-05-18T03:02:43.260Z,10.35400391
2023-05-18T03:03:43.816Z,10.35400391
2023-05-18T03:04:45.521Z,10.38421631
2023-05-18T03:05:45.834Z,10.3237915
2023-05-18T03:06:46.912Z,10.34393311
2023-05-18T03:07:47.984Z,10.3237915
2023-05-18T03:08:49.354Z,10.35400391
2023-05-18T03:09:50.348Z,10.35400391
2023-05-18T03:10:51.582Z,10.3237915
2023-05-18T03:11:52.619Z,10.34393311
2023-05-18T03:12:53.192Z,10.34393311
2023-05-18T03:13:54.362Z,10.35400391
2023-05-18T03:14:55.445Z,10.39428711
2023-05-18T03:15:56.669Z,10.42449951
2023-05-18T03:16:58.254Z,10.46478271
2023-05-18T03:18:29.625Z,10.43457031
2023-05-18T03:19:30.876Z,10.43457031
2023-05-18T03:20:31.871Z,10.43457031
2023-05-18T03:21:32.831Z,10.43457031
2023-05-18T03:22:34.123Z,10.46478271
2023-05-18T03:23:35.170Z,10.43457031
2023-05-18T03:24:35.742Z,10.42449951
2023-05-18T03:25:36.837Z,10.44464111
2023-05-18T03:26:37.307Z,10.44464111
2023-05-18T03:27:38.607Z,10.39428711
2023-05-18T03:28:39.181Z,10.42449951
2023-05-18T03:29:40.370Z,10.39428711
2023-05-18T03:30:41.431Z,10.38421631
2023-05-18T03:31:42.655Z,10.36407471
2023-05-18T03:32:43.717Z,10.35400391
2023-05-18T03:33:44.077Z,10.3137207
2023-05-18T03:34:45.397Z,10.2935791
2023-05-18T03:35:48.459Z,10.2935791
2023-05-18T03:36:47.694Z,10.2935791
2023-05-18T03:37:48.606Z,10.3137207
2023-05-18T03:38:49.048Z,10.3137207
2023-05-18T03:39:50.503Z,10.2835083
2023-05-18T03:40:52.088Z,10.2633667
2023-05-18T03:41:52.494Z,10.2633667
2023-05-18T03:42:53.853Z,10.2633667
2023-05-18T03:43:54.857Z,10.2633667
2023-05-18T03:44:55.880Z,10.2532959
2023-05-18T03:46:28.257Z,10.2230835
2023-05-18T03:47:29.110Z,10.2432251
2023-05-18T03:48:30.126Z,10.2432251
2023-05-18T03:49:30.664Z,10.2532959
2023-05-18T03:50:31.889Z,10.2532959
2023-05-18T03:51:33.435Z,10.2532959
2023-05-18T03:52:34.660Z,10.2532959
2023-05-18T03:53:35.619Z,10.2633667
2023-05-18T03:54:36.111Z,10.2432251
2023-05-18T03:55:37.371Z,10.20294189
2023-05-18T03:56:38.009Z,10.18280029
2023-05-18T03:57:40.133Z,10.18280029
2023-05-18T03:58:40.605Z,10.20294189
2023-05-18T03:59:41.904Z,10.18280029
2023-05-18T04:00:43.702Z,10.16265869
2023-05-18T04:01:45.219Z,10.16265869
2023-05-18T04:02:46.747Z,10.17272949
2023-05-18T04:03:48.197Z,10.18280029
2023-05-18T04:04:49.307Z,10.17272949
2023-05-18T04:05:50.626Z,10.17272949
2023-05-18T04:06:51.120Z,10.17272949
2023-05-18T04:07:52.129Z,10.17272949
2023-05-18T04:08:53.318Z,10.17272949
2023-05-18T04:09:54.329Z,10.18280029
2023-05-18T04:10:55.404Z,10.16265869
2023-05-18T04:11:56.856Z,10.13244629
2023-05-18T04:13:28.642Z,10.14251709
2023-05-18T04:14:29.635Z,10.17272949
2023-05-18T04:15:30.788Z,10.18280029
2023-05-18T04:16:31.718Z,10.20294189
2023-05-18T04:17:32.657Z,10.2432251
2023-05-18T04:18:33.610Z,10.2432251
2023-05-18T04:19:34.183Z,10.2633667
2023-05-18T04:20:35.332Z,10.20294189
2023-05-18T04:21:36.506Z,10.20294189
2023-05-18T04:22:37.641Z,10.20294189
2023-05-18T04:23:38.074Z,10.2230835
2023-05-18T04:24:39.310Z,10.17272949
2023-05-18T04:25:40.385Z,10.14251709
2023-05-18T04:26:41.787Z,10.09216309
2023-05-18T04:27:43.158Z,10.07202148
2023-05-18T04:28:44.351Z,10.04180908
2023-05-18T04:29:45.310Z,10.02166748
2023-05-18T04:30:46.291Z,10.01159668
2023-05-18T04:31:47.392Z,10.01159668
2023-05-18T04:32:47.901Z,10.02166748
2023-05-18T04:33:48.285Z,10.04180908
2023-05-18T04:34:49.394Z,10.06195068
2023-05-18T04:35:50.589Z,10.09216309
2023-05-18T04:36:51.617Z,10.09216309
2023-05-18T04:37:52.622Z,10.11230469
2023-05-18T04:38:53.807Z,10.13244629
2023-05-18T04:39:55.132Z,10.14251709
2023-05-18T04:40:55.514Z,10.18280029
2023-05-18T04:42:27.612Z,10.2230835
2023-05-18T04:43:28.094Z,10.2532959
2023-05-18T04:44:29.420Z,10.2633667
2023-05-18T04:45:30.567Z,10.3137207
2023-05-18T04:46:31.407Z,10.3237915
2023-05-18T04:47:32.653Z,10.34393311
2023-05-18T04:48:33.607Z,10.36407471
2023-05-18T04:49:34.651Z,10.35400391
2023-05-18T04:50:35.623Z,10.38421631
2023-05-18T04:51:36.610Z,10.39428711
2023-05-18T04:52:37.684Z,10.42449951
2023-05-18T04:53:38.645Z,10.39428711
2023-05-18T04:54:39.639Z,10.39428711
2023-05-18T04:55:40.866Z,10.43457031
2023-05-18T04:56:41.708Z,10.43457031
2023-05-18T04:57:42.823Z,10.44464111
2023-05-18T04:58:43.816Z,10.46478271
2023-05-18T04:59:44.908Z,10.46478271
2023-05-18T05:00:45.792Z,10.44464111
2023-05-18T05:01:47.192Z,10.44464111
2023-05-18T05:02:48.481Z,10.46478271
2023-05-18T05:03:49.526Z,10.46478271
2023-05-18T05:04:50.878Z,10.44464111
2023-05-18T05:05:52.245Z,10.44464111
2023-05-18T05:06:53.480Z,10.43457031
2023-05-18T05:07:54.975Z,10.3237915
2023-05-18T05:09:29.158Z,10.3137207
2023-05-18T05:10:31.452Z,10.2633667
2023-05-18T05:11:33.137Z,10.2532959
2023-05-18T05:12:34.632Z,10.2432251
2023-05-18T05:13:36.729Z,10.2432251
2023-05-18T05:14:38.178Z,10.2230835
2023-05-18T05:15:39.768Z,10.18280029
2023-05-18T05:16:41.146Z,10.16265869
2023-05-18T05:17:42.705Z,10.11230469
2023-05-18T05:18:45.933Z,10.09216309
2023-05-18T05:19:45.404Z,10.09216309
2023-05-18T05:20:47.212Z,10.11230469
2023-05-18T05:21:48.427Z,10.13244629
2023-05-18T05:22:49.943Z,10.14251709
2023-05-18T05:23:50.946Z,10.11230469
2023-05-18T05:24:52.486Z,10.13244629
2023-05-18T05:25:54.038Z,10.11230469
2023-05-18T05:26:55.862Z,10.09216309
2023-05-18T05:28:27.600Z,10.07202148
2023-05-18T05:29:28.616Z,10.11230469
2023-05-18T05:30:30.111Z,10.14251709
2023-05-18T05:31:31.190Z,10.16265869
2023-05-18T05:32:32.118Z,10.17272949
2023-05-18T05:33:33.106Z,10.17272949
2023-05-18T05:34:34.118Z,10.17272949
2023-05-18T05:35:35.513Z,10.18280029
2023-05-18T05:36:36.637Z,10.18280029
2023-05-18T05:37:37.648Z,10.17272949
2023-05-18T05:38:38.646Z,10.16265869
2023-05-18T05:39:39.122Z,10.13244629
2023-05-18T05:40:40.331Z,10.16265869
2023-05-18T05:41:41.346Z,10.17272949
2023-05-18T05:42:42.368Z,10.18280029
2023-05-18T05:43:43.661Z,10.20294189
2023-05-18T05:44:44.841Z,10.2230835
2023-05-18T05:45:45.909Z,10.2230835
2023-05-18T05:46:47.397Z,10.18280029
2023-05-18T05:47:48.337Z,10.20294189
2023-05-18T05:48:49.329Z,10.2432251
2023-05-18T05:49:50.301Z,10.2532959
2023-05-18T05:50:51.427Z,10.2633667
2023-05-18T05:51:52.328Z,10.2230835
2023-05-18T05:52:53.325Z,10.17272949
2023-05-18T05:53:54.377Z,10.16265869
2023-05-18T05:55:26.613Z,10.17272949
2023-05-18T05:56:27.662Z,10.20294189
2023-05-18T05:57:29.161Z,10.2230835
2023-05-18T05:58:29.570Z,10.2633667
2023-05-18T05:59:30.830Z,10.3137207
2023-05-18T06:00:31.809Z,10.35400391
2023-05-18T06:01:32.905Z,10.38421631
2023-05-18T06:02:34.492Z,10.42449951
2023-05-18T06:03:36.259Z,10.47485352
2023-05-18T06:04:36.513Z,10.51513672
2023-05-18T06:05:37.328Z,10.51513672
2023-05-18T06:06:38.608Z,10.54534912
2023-05-18T06:07:39.631Z,10.54534912
2023-05-18T06:08:40.602Z,10.53527832
2023-05-18T06:09:41.618Z,10.53527832
2023-05-18T06:10:42.808Z,10.54534912
2023-05-18T06:11:43.875Z,10.54534912
2023-05-18T06:12:44.876Z,10.56549072
2023-05-18T06:13:45.291Z,10.56549072
2023-05-18T06:14:45.721Z,10.57556152
2023-05-18T06:15:47.100Z,10.57556152
2023-05-18T06:16:48.215Z,10.59570313
2023-05-18T06:17:48.719Z,10.61584473
2023-05-18T06:18:49.940Z,10.61584473
2023-05-18T06:19:51.313Z,10.62591553
2023-05-18T06:20:52.339Z,10.61584473
2023-05-18T06:21:53.444Z,10.62591553
2023-05-18T06:23:26.170Z,10.64605713
2023-05-18T06:24:26.524Z,10.62591553
2023-05-18T06:25:27.883Z,10.62591553
2023-05-18T06:26:28.849Z,10.68634033
2023-05-18T06:27:30.111Z,10.67626953
2023-05-18T06:28:31.126Z,10.64605713
2023-05-18T06:29:32.118Z,10.64605713
2023-05-18T06:30:33.121Z,10.67626953
2023-05-18T06:31:34.119Z,10.69641113
2023-05-18T06:32:34.722Z,10.69641113
2023-05-18T06:33:35.938Z,10.69641113
2023-05-18T06:34:37.355Z,10.72662354
2023-05-18T06:35:38.349Z,10.74676514
2023-05-18T06:36:39.620Z,10.74676514
2023-05-18T06:37:41.216Z,10.75683594
2023-05-18T06:38:41.643Z,10.82733154
2023-05-18T06:39:42.111Z,10.86761475
2023-05-18T06:40:43.652Z,10.89782715
2023-05-18T06:41:44.919Z,10.89782715
2023-05-18T06:42:46.416Z,10.92803955
2023-05-18T06:43:47.865Z,10.89782715
2023-05-18T06:44:49.140Z,10.92803955
2023-05-18T06:45:50.160Z,10.92803955
2023-05-18T06:46:51.120Z,10.94818115
2023-05-18T06:47:52.663Z,11.01867676
2023-05-18T06:48:53.638Z,11.05895996
2023-05-18T06:49:54.646Z,11.07910156
2023-05-18T06:51:25.929Z,11.05895996
2023-05-18T06:52:28.156Z,11.05895996
2023-05-18T06:53:29.134Z,11.05895996
2023-05-18T06:54:30.123Z,11.05895996
2023-05-18T06:55:31.377Z,11.02874756
2023-05-18T06:56:32.126Z,11.02874756
2023-05-18T06:57:33.139Z,11.01867676
2023-05-18T06:58:34.143Z,11.02874756
2023-05-18T06:59:35.354Z,11.07910156
2023-05-18T07:00:36.710Z,11.08917236
2023-05-18T07:01:37.726Z,11.11938477
2023-05-18T07:02:39.150Z,11.15966797
2023-05-18T07:03:40.190Z,11.12945557
2023-05-18T07:04:41.131Z,11.15966797
2023-05-18T07:05:42.372Z,11.12945557
2023-05-18T07:06:42.764Z,11.15966797
2023-05-18T07:07:43.947Z,11.16973877
2023-05-18T07:08:44.419Z,11.18988037
2023-05-18T07:09:45.940Z,11.21002197
2023-05-18T07:10:46.884Z,11.26037598
2023-05-18T07:11:47.832Z,11.26037598
2023-05-18T07:12:48.805Z,11.27044678
2023-05-18T07:13:49.882Z,11.31072998
2023-05-18T07:14:50.875Z,11.39129639
2023-05-18T07:15:51.895Z,11.46179199
2023-05-18T07:16:52.854Z,11.512146
2023-05-18T07:17:53.877Z,11.5927124
2023-05-18T07:19:25.736Z,11.6229248
2023-05-18T07:20:26.790Z,11.64306641
2023-05-18T07:21:28.172Z,11.67327881
2023-05-18T07:22:29.110Z,11.69342041
2023-05-18T07:23:30.150Z,11.70349121
2023-05-18T07:24:31.181Z,11.70349121
2023-05-18T07:25:31.823Z,11.67327881
2023-05-18T07:26:32.110Z,11.64306641
2023-05-18T07:27:33.127Z,11.6229248
2023-05-18T07:28:34.114Z,11.5927124
2023-05-18T07:29:35.308Z,11.5625
2023-05-18T07:30:36.415Z,11.5322876
2023-05-18T07:31:37.875Z,11.5322876
2023-05-18T07:32:38.846Z,11.512146
2023-05-18T07:33:41.139Z,11.49200439
2023-05-18T07:34:40.884Z,11.48193359
2023-05-18T07:35:42.490Z,11.48193359
2023-05-18T07:36:43.838Z,11.49200439
2023-05-18T07:37:44.885Z,11.5322876
2023-05-18T07:38:45.835Z,11.5625
2023-05-18T07:39:47.004Z,11.5423584
2023-05-18T07:40:48.367Z,11.5725708
2023-05-18T07:41:49.460Z,11.6027832
2023-05-18T07:42:50.903Z,11.6027832
2023-05-18T07:43:52.125Z,11.6229248
2023-05-18T07:44:53.164Z,11.6229248
2023-05-18T07:45:54.647Z,11.5927124
2023-05-18T07:47:26.271Z,11.5927124
2023-05-18T07:48:27.647Z,11.63299561
2023-05-18T07:49:28.098Z,11.67327881
2023-05-18T07:50:28.807Z,11.72363281
2023-05-18T07:51:30.120Z,11.74377441
2023-05-18T07:52:31.694Z,11.78405762
2023-05-18T07:53:32.251Z,11.81427002
2023-05-18T07:54:33.352Z,11.88476563
2023-05-18T07:55:34.743Z,11.95526123
2023-05-18T07:56:36.175Z,12.00561523
2023-05-18T07:57:36.853Z,12.04589844
2023-05-18T07:58:37.937Z,12.10632324
2023-05-18T07:59:39.348Z,12.14660645
2023-05-18T08:00:40.469Z,12.17681885
2023-05-18T08:01:42.061Z,12.20703125
2023-05-18T08:02:44.096Z,12.20703125
2023-05-18T08:03:44.988Z,12.24731445
2023-05-18T08:04:45.654Z,12.30773926
2023-05-18T08:05:46.654Z,12.35809326
2023-05-18T08:06:47.134Z,12.42858887
2023-05-18T08:07:48.455Z,12.48901367
2023-05-18T08:08:49.830Z,12.54943848
2023-05-18T08:09:50.915Z,12.61993408
2023-05-18T08:10:52.410Z,12.67028809
2023-05-18T08:11:53.860Z,12.7911377
2023-05-18T08:13:25.281Z,12.8414917
2023-05-18T08:14:25.767Z,12.8515625
2023-05-18T08:15:27.651Z,12.8918457
2023-05-18T08:16:29.187Z,12.95227051
2023-05-18T08:17:30.284Z,12.99255371
2023-05-18T08:18:30.741Z,13.07312012
2023-05-18T08:19:32.675Z,13.13354492
2023-05-18T08:20:34.143Z,13.19396973
2023-05-18T08:21:35.652Z,13.22418213
2023-05-18T08:22:37.159Z,13.22418213
2023-05-18T08:23:37.628Z,13.25439453
2023-05-18T08:24:38.922Z,13.28460693
2023-05-18T08:25:40.512Z,13.29467773
2023-05-18T08:26:41.912Z,13.32489014
2023-05-18T08:27:43.724Z,13.35510254
2023-05-18T08:28:44.940Z,13.37524414
2023-05-18T08:29:46.395Z,13.40545654
2023-05-18T08:30:47.356Z,13.42559814
2023-05-18T08:31:49.687Z,13.42559814
2023-05-18T08:32:49.362Z,13.42559814
2023-05-18T08:33:50.393Z,13.42559814
2023-05-18T08:34:51.368Z,13.42559814
2023-05-18T08:35:52.362Z,13.40545654
2023-05-18T08:37:24.033Z,13.37524414
2023-05-18T08:38:26.173Z,13.32489014
2023-05-18T08:39:26.607Z,13.32489014
2023-05-18T08:40:27.010Z,13.32489014
2023-05-18T08:41:27.441Z,13.34503174
2023-05-18T08:42:41.497Z,13.35510254
2023-05-18T08:43:30.628Z,13.35510254
2023-05-18T08:44:31.639Z,13.35510254
2023-05-18T08:45:32.868Z,13.37524414
2023-05-18T08:46:33.636Z,13.35510254
2023-05-18T08:47:34.730Z,13.35510254
2023-05-18T08:48:35.674Z,13.34503174
2023-05-18T08:49:36.650Z,13.35510254
2023-05-18T08:50:37.863Z,13.32489014
2023-05-18T08:51:38.857Z,13.29467773
2023-05-18T08:52:39.838Z,13.29467773
2023-05-18T08:53:40.853Z,13.27453613
2023-05-18T08:54:41.952Z,13.24432373
2023-05-18T08:55:43.136Z,13.22418213
2023-05-18T08:56:44.649Z,13.24432373
2023-05-18T08:57:45.380Z,13.24432373
2023-05-18T08:58:46.918Z,13.25439453
2023-05-18T08:59:48.455Z,13.28460693
2023-05-18T09:00:49.825Z,13.32489014
2023-05-18T09:01:50.895Z,13.37524414
2023-05-18T09:02:52.041Z,13.45581055
2023-05-18T09:04:24.198Z,13.49609375
2023-05-18T09:05:25.234Z,13.54644775
2023-05-18T09:06:26.113Z,13.60687256
2023-05-18T09:07:27.127Z,13.61694336
2023-05-18T09:08:28.112Z,13.67736816
2023-05-18T09:09:29.143Z,13.65722656
2023-05-18T09:10:29.542Z,13.64715576
2023-05-18T09:11:30.049Z,13.62701416
2023-05-18T09:12:31.126Z,13.62701416
2023-05-18T09:13:32.201Z,13.65722656
2023-05-18T09:14:33.111Z,13.65722656
2023-05-18T09:15:34.139Z,13.67736816
2023-05-18T09:16:34.735Z,13.65722656
2023-05-18T09:17:35.858Z,13.65722656
2023-05-18T09:18:36.902Z,13.67736816
2023-05-18T09:19:37.867Z,13.68743896
2023-05-18T09:20:38.861Z,13.71765137
2023-05-18T09:21:40.135Z,13.72772217
2023-05-18T09:22:41.199Z,13.75793457
2023-05-18T09:23:42.130Z,13.82843018
2023-05-18T09:24:43.692Z,13.83850098
2023-05-18T09:25:44.923Z,13.85864258
2023-05-18T09:26:46.693Z,13.89892578
2023-05-18T09:27:47.627Z,13.93920898
2023-05-18T09:28:48.651Z,13.97949219
2023-05-18T09:29:49.853Z,14.00970459
2023-05-18T09:30:50.886Z,14.00970459
2023-05-18T09:31:51.929Z,14.00970459
2023-05-18T09:32:53.853Z,14.01977539
2023-05-18T09:34:25.642Z,14.04998779
2023-05-18T09:35:26.690Z,14.090271
2023-05-18T09:36:28.164Z,14.1607666
2023-05-18T09:37:28.552Z,14.1708374
2023-05-18T09:38:29.637Z,14.2010498
2023-05-18T09:39:30.607Z,14.23126221
2023-05-18T09:40:31.112Z,14.29168701
2023-05-18T09:41:32.167Z,14.31182861
2023-05-18T09:42:33.119Z,14.36218262
2023-05-18T09:43:34.124Z,14.36218262
2023-05-18T09:44:35.130Z,14.39239502
2023-05-18T09:45:36.154Z,14.39239502
2023-05-18T09:46:37.706Z,14.42260742
2023-05-18T09:47:38.235Z,14.45281982
2023-05-18T09:48:38.582Z,14.46289063
2023-05-18T09:49:39.843Z,14.46289063
2023-05-18T09:50:40.840Z,14.49310303
2023-05-18T09:51:41.288Z,14.53338623
2023-05-18T09:52:42.376Z,14.53338623
2023-05-18T09:53:43.620Z,14.52331543
2023-05-18T09:54:44.952Z,14.48303223
2023-05-18T09:55:46.371Z,14.46289063
2023-05-18T09:56:58.489Z,14.49310303
2023-05-18T09:57:48.377Z,14.45281982
2023-05-18T09:58:49.364Z,14.42260742
2023-05-18T09:59:50.381Z,14.39239502
2023-05-18T10:00:51.470Z,14.36218262
2023-05-18T10:02:23.714Z,14.35211182
2023-05-18T10:03:24.618Z,14.34204102
2023-05-18T10:04:25.673Z,14.29168701
2023-05-18T10:05:26.628Z,14.27154541
2023-05-18T10:06:27.669Z,14.26147461
2023-05-18T10:07:28.646Z,14.30175781
2023-05-18T10:08:29.620Z,14.36218262
2023-05-18T10:09:30.111Z,14.36218262
2023-05-18T10:10:31.393Z,14.39239502
2023-05-18T10:11:31.517Z,14.42260742
2023-05-18T10:12:32.867Z,14.46289063
2023-05-18T10:13:33.259Z,14.52331543
2023-05-18T10:14:33.693Z,14.54345703
2023-05-18T10:15:34.099Z,14.57366943
2023-05-18T10:16:35.170Z,14.59381104
2023-05-18T10:17:36.298Z,14.57366943
2023-05-18T10:18:37.774Z,14.54345703
2023-05-18T10:19:38.080Z,14.53338623
2023-05-18T10:20:39.316Z,14.52331543
2023-05-18T10:21:40.340Z,14.53338623
2023-05-18T10:22:41.407Z,14.56359863
2023-05-18T10:23:42.627Z,14.59381104
2023-05-18T10:24:43.626Z,14.63409424
2023-05-18T10:25:44.638Z,14.61395264
2023-05-18T10:26:45.621Z,14.63409424
2023-05-18T10:27:47.185Z,14.63409424
2023-05-18T10:28:48.161Z,14.56359863
2023-05-18T10:29:49.327Z,14.56359863
2023-05-18T10:30:50.374Z,14.53338623
2023-05-18T10:31:51.620Z,14.52331543
2023-05-18T10:33:29.072Z,14.56359863
2023-05-18T10:34:25.129Z,14.53338623
2023-05-18T10:35:26.129Z,14.53338623
2023-05-18T10:36:26.550Z,14.52331543
2023-05-18T10:37:27.849Z,14.52331543
2023-05-18T10:38:29.648Z,14.53338623
2023-05-18T10:39:30.632Z,14.52331543
2023-05-18T10:40:31.872Z,14.56359863
2023-05-18T10:41:32.065Z,14.56359863
2023-05-18T10:42:33.164Z,14.57366943
2023-05-18T10:43:34.238Z,14.54345703
2023-05-18T10:44:34.564Z,14.56359863
2023-05-18T10:45:35.857Z,14.56359863
2023-05-18T10:46:37.063Z,14.57366943
2023-05-18T10:47:38.381Z,14.59381104
2023-05-18T10:48:38.783Z,14.60388184
2023-05-18T10:49:39.641Z,14.60388184
2023-05-18T10:50:40.650Z,14.61395264
2023-05-18T10:51:42.145Z,14.66430664
2023-05-18T10:52:43.139Z,14.67437744
2023-05-18T10:53:44.682Z,14.71466064
2023-05-18T10:54:45.641Z,14.71466064
2023-05-18T10:55:46.649Z,14.71466064
2023-05-18T10:56:47.638Z,14.71466064
2023-05-18T10:57:48.642Z,14.74487305
2023-05-18T10:58:49.106Z,14.77508545
2023-05-18T10:59:50.349Z,14.79522705
2023-05-18T11:00:51.878Z,14.82543945
2023-05-18T11:02:23.093Z,14.84558105
2023-05-18T11:03:24.346Z,14.84558105
2023-05-18T11:04:25.688Z,14.82543945
2023-05-18T11:05:26.768Z,14.79522705
2023-05-18T11:06:27.683Z,14.75494385
2023-05-18T11:07:28.626Z,14.75494385
2023-05-18T11:08:29.664Z,14.72473145
2023-05-18T11:09:30.700Z,14.69451904
2023-05-18T11:10:31.951Z,14.67437744
2023-05-18T11:11:33.142Z,14.63409424
2023-05-18T11:12:34.165Z,14.61395264
2023-05-18T11:13:35.139Z,14.59381104
2023-05-18T11:14:36.174Z,14.59381104
2023-05-18T11:15:37.776Z,14.60388184